sensor_id;sensor_type;location;lat;lon;timestamp;temperature;humidity
70368;DHT22;57789;53.868;10.728;2023-09-19T00:00:17;16.80;99.90
70368;DHT22;57789;53.868;10.728;2023-09-19T00:02:55;16.70;99.90
70368;DHT22;57789;53.868;10.728;2023-09-19T00:05:28;16.70;99.90
70368;DHT22;57789;53.868;10.728;2023-09-19T00:07:56;16.70;99.90
70368;DHT22;57789;53.868;10.728;2023-09-19T00:10:27;16.60;99.90
70368;DHT22;57789;53.868;10.728;2023-09-19T00:12:59;16.60;99.90
70368;DHT22;57789;53.868;10.728;2023-09-19T00:15:26;16.60;99.90
70368;DHT22;57789;53.868;10.728;2023-09-19T00:17:55;16.60;99.90
70368;DHT22;57789;53.868;10.728;2023-09-19T00:20:21;16.60;99.90
70368;DHT22;57789;53.868;10.728;2023-09-19T00:22:49;16.60;99.90
70368;DHT22;57789;53.868;10.728;2023-09-19T00:25:19;16.60;99.90
70368;DHT22;57789;53.868;10.728;2023-09-19T00:27:46;16.60;99.90
70368;DHT22;57789;53.868;10.728;2023-09-19T00:30:13;16.50;99.90
70368;DHT22;57789;53.868;10.728;2023-09-19T00:32:45;16.60;99.90
70368;DHT22;57789;53.868;10.728;2023-09-19T00:35:16;16.60;99.90
70368;DHT22;57789;53.868;10.728;2023-09-19T00:37:42;16.50;99.90
70368;DHT22;57789;53.868;10.728;2023-09-19T00:40:09;16.50;99.90
70368;DHT22;57789;53.868;10.728;2023-09-19T00:42:48;16.50;99.90
70368;DHT22;57789;53.868;10.728;2023-09-19T00:45:16;16.50;99.90
70368;DHT22;57789;53.868;10.728;2023-09-19T00:47:44;16.50;99.90
70368;DHT22;57789;53.868;10.728;2023-09-19T00:50:12;16.50;99.90
70368;DHT22;57789;53.868;10.728;2023-09-19T00:52:40;16.50;99.90
70368;DHT22;57789;53.868;10.728;2023-09-19T00:55:08;16.50;99.90
70368;DHT22;57789;53.868;10.728;2023-09-19T00:57:35;16.50;99.90
70368;DHT22;57789;53.868;10.728;2023-09-19T01:00:02;16.50;99.90
70368;DHT22;57789;53.868;10.728;2023-09-19T01:02:32;16.50;99.90
70368;DHT22;57789;53.868;10.728;2023-09-19T01:04:59;16.50;99.90
70368;DHT22;57789;53.868;10.728;2023-09-19T01:07:26;16.50;99.90
70368;DHT22;57789;53.868;10.728;2023-09-19T01:09:52;16.50;99.90
70368;DHT22;57789;53.868;10.728;2023-09-19T01:12:30;16.50;99.90
70368;DHT22;57789;53.868;10.728;2023-09-19T01:17:53;16.40;99.90
70368;DHT22;57789;53.868;10.728;2023-09-19T01:20:31;16.40;99.90
70368;DHT22;57789;53.868;10.728;2023-09-19T01:25:42;16.30;99.90
70368;DHT22;57789;53.868;10.728;2023-09-19T01:29:01;16.30;99.90
70368;DHT22;57789;53.868;10.728;2023-09-19T01:31:34;16.30;99.90
70368;DHT22;57789;53.868;10.728;2023-09-19T01:34:03;16.40;99.90
70368;DHT22;57789;53.868;10.728;2023-09-19T01:36:35;16.40;99.90
70368;DHT22;57789;53.868;10.728;2023-09-19T01:39:13;16.50;99.90
70368;DHT22;57789;53.868;10.728;2023-09-19T01:44:29;16.50;99.90
70368;DHT22;57789;53.868;10.728;2023-09-19T01:47:02;16.60;99.90
70368;DHT22;57789;53.868;10.728;2023-09-19T01:50:06;16.60;99.90
70368;DHT22;57789;53.868;10.728;2023-09-19T01:52:38;16.50;99.90
70368;DHT22;57789;53.868;10.728;2023-09-19T01:55:09;16.50;99.90
70368;DHT22;57789;53.868;10.728;2023-09-19T01:58:34;16.50;99.90
70368;DHT22;57789;53.868;10.728;2023-09-19T02:00:51;16.40;99.90
70368;DHT22;57789;53.868;10.728;2023-09-19T02:03:18;16.30;99.90
70368;DHT22;57789;53.868;10.728;2023-09-19T02:05:49;16.30;99.90
70368;DHT22;57789;53.868;10.728;2023-09-19T02:08:19;16.30;99.90
70368;DHT22;57789;53.868;10.728;2023-09-19T02:10:46;16.30;99.90
70368;DHT22;57789;53.868;10.728;2023-09-19T02:13:17;16.20;99.90
70368;DHT22;57789;53.868;10.728;2023-09-19T02:15:44;16.20;99.90
70368;DHT22;57789;53.868;10.728;2023-09-19T02:18:10;16.20;99.90
70368;DHT22;57789;53.868;10.728;2023-09-19T02:20:37;16.30;99.90
70368;DHT22;57789;53.868;10.728;2023-09-19T02:23:04;16.20;99.90
70368;DHT22;57789;53.868;10.728;2023-09-19T02:25:29;16.20;99.90
70368;DHT22;57789;53.868;10.728;2023-09-19T02:27:56;16.20;99.90
70368;DHT22;57789;53.868;10.728;2023-09-19T02:30:24;16.20;99.90
70368;DHT22;57789;53.868;10.728;2023-09-19T02:32:51;16.20;99.90
70368;DHT22;57789;53.868;10.728;2023-09-19T02:35:17;16.10;99.90
70368;DHT22;57789;53.868;10.728;2023-09-19T02:37:45;16.10;99.90
70368;DHT22;57789;53.868;10.728;2023-09-19T02:40:11;16.10;99.90
70368;DHT22;57789;53.868;10.728;2023-09-19T02:42:54;16.00;99.90
70368;DHT22;57789;53.868;10.728;2023-09-19T02:45:20;16.00;99.90
70368;DHT22;57789;53.868;10.728;2023-09-19T02:47:46;16.00;99.90
70368;DHT22;57789;53.868;10.728;2023-09-19T02:50:13;16.00;99.90
70368;DHT22;57789;53.868;10.728;2023-09-19T02:52:45;16.00;99.90
70368;DHT22;57789;53.868;10.728;2023-09-19T02:55:16;16.00;99.90
70368;DHT22;57789;53.868;10.728;2023-09-19T02:57:49;16.00;99.90
70368;DHT22;57789;53.868;10.728;2023-09-19T03:00:17;16.00;99.90
70368;DHT22;57789;53.868;10.728;2023-09-19T03:02:52;15.90;99.90
70368;DHT22;57789;53.868;10.728;2023-09-19T03:05:19;16.00;99.90
70368;DHT22;57789;53.868;10.728;2023-09-19T03:07:47;15.90;99.90
70368;DHT22;57789;53.868;10.728;2023-09-19T03:10:19;15.90;99.90
70368;DHT22;57789;53.868;10.728;2023-09-19T03:12:46;15.90;99.90
70368;DHT22;57789;53.868;10.728;2023-09-19T03:15:12;15.80;99.90
70368;DHT22;57789;53.868;10.728;2023-09-19T03:17:43;15.80;99.90
70368;DHT22;57789;53.868;10.728;2023-09-19T03:20:09;15.80;99.90
70368;DHT22;57789;53.868;10.728;2023-09-19T03:22:37;15.90;99.90
70368;DHT22;57789;53.868;10.728;2023-09-19T03:25:03;15.80;99.90
70368;DHT22;57789;53.868;10.728;2023-09-19T03:27:34;15.80;99.90
70368;DHT22;57789;53.868;10.728;2023-09-19T03:29:59;15.80;99.90
70368;DHT22;57789;53.868;10.728;2023-09-19T03:32:25;15.70;99.90
70368;DHT22;57789;53.868;10.728;2023-09-19T03:34:52;15.70;99.90
70368;DHT22;57789;53.868;10.728;2023-09-19T03:37:18;15.70;99.90
70368;DHT22;57789;53.868;10.728;2023-09-19T03:39:44;15.70;99.90
70368;DHT22;57789;53.868;10.728;2023-09-19T03:42:10;15.70;99.90
70368;DHT22;57789;53.868;10.728;2023-09-19T03:44:35;15.70;99.90
70368;DHT22;57789;53.868;10.728;2023-09-19T03:47:01;15.80;99.90
70368;DHT22;57789;53.868;10.728;2023-09-19T03:49:27;15.80;99.90
70368;DHT22;57789;53.868;10.728;2023-09-19T03:51:52;15.80;99.90
70368;DHT22;57789;53.868;10.728;2023-09-19T03:54:18;15.80;99.90
70368;DHT22;57789;53.868;10.728;2023-09-19T03:56:44;15.90;99.90
70368;DHT22;57789;53.868;10.728;2023-09-19T03:59:11;16.00;99.90
70368;DHT22;57789;53.868;10.728;2023-09-19T04:01:37;16.00;99.90
70368;DHT22;57789;53.868;10.728;2023-09-19T04:04:03;16.00;99.90
70368;DHT22;57789;53.868;10.728;2023-09-19T04:06:36;16.00;99.90
70368;DHT22;57789;53.868;10.728;2023-09-19T04:09:03;16.10;99.90
70368;DHT22;57789;53.868;10.728;2023-09-19T04:11:29;16.10;99.90
70368;DHT22;57789;53.868;10.728;2023-09-19T04:13:56;16.10;99.90
70368;DHT22;57789;53.868;10.728;2023-09-19T04:16:22;16.10;99.90
70368;DHT22;57789;53.868;10.728;2023-09-19T04:18:47;16.10;99.90
70368;DHT22;57789;53.868;10.728;2023-09-19T04:21:13;16.10;99.90
70368;DHT22;57789;53.868;10.728;2023-09-19T04:23:39;16.10;99.90
70368;DHT22;57789;53.868;10.728;2023-09-19T04:26:05;16.00;99.90
70368;DHT22;57789;53.868;10.728;2023-09-19T04:28:31;16.00;99.90
70368;DHT22;57789;53.868;10.728;2023-09-19T04:30:59;15.90;99.90
70368;DHT22;57789;53.868;10.728;2023-09-19T04:33:25;16.00;99.90
70368;DHT22;57789;53.868;10.728;2023-09-19T04:35:52;16.00;99.90
70368;DHT22;57789;53.868;10.728;2023-09-19T04:38:18;16.00;99.90
70368;DHT22;57789;53.868;10.728;2023-09-19T04:40:45;16.00;99.90
70368;DHT22;57789;53.868;10.728;2023-09-19T04:43:11;16.00;99.90
70368;DHT22;57789;53.868;10.728;2023-09-19T04:45:38;15.90;99.90
70368;DHT22;57789;53.868;10.728;2023-09-19T04:48:05;15.90;99.90
70368;DHT22;57789;53.868;10.728;2023-09-19T04:50:32;15.80;99.90
70368;DHT22;57789;53.868;10.728;2023-09-19T04:52:59;15.70;99.90
70368;DHT22;57789;53.868;10.728;2023-09-19T04:55:26;15.70;99.90
70368;DHT22;57789;53.868;10.728;2023-09-19T04:57:52;15.60;99.90
70368;DHT22;57789;53.868;10.728;2023-09-19T05:00:22;15.60;99.90
70368;DHT22;57789;53.868;10.728;2023-09-19T05:02:55;15.50;99.90
70368;DHT22;57789;53.868;10.728;2023-09-19T05:05:24;15.50;99.90
70368;DHT22;57789;53.868;10.728;2023-09-19T05:07:50;15.50;99.90
70368;DHT22;57789;53.868;10.728;2023-09-19T05:10:17;15.60;99.90
70368;DHT22;57789;53.868;10.728;2023-09-19T05:12:46;15.60;99.90
70368;DHT22;57789;53.868;10.728;2023-09-19T05:15:14;15.60;99.90
70368;DHT22;57789;53.868;10.728;2023-09-19T05:17:51;15.60;99.90
70368;DHT22;57789;53.868;10.728;2023-09-19T05:20:17;15.60;99.90
70368;DHT22;57789;53.868;10.728;2023-09-19T05:22:58;15.50;99.90
70368;DHT22;57789;53.868;10.728;2023-09-19T05:25:27;15.50;99.90
70368;DHT22;57789;53.868;10.728;2023-09-19T05:28:00;15.50;99.90
70368;DHT22;57789;53.868;10.728;2023-09-19T05:30:29;15.40;99.90
70368;DHT22;57789;53.868;10.728;2023-09-19T05:32:55;15.30;99.90
70368;DHT22;57789;53.868;10.728;2023-09-19T05:35:22;15.30;99.90
70368;DHT22;57789;53.868;10.728;2023-09-19T05:37:50;15.30;99.90
70368;DHT22;57789;53.868;10.728;2023-09-19T05:40:18;15.20;99.90
70368;DHT22;57789;53.868;10.728;2023-09-19T05:42:44;15.30;99.90
70368;DHT22;57789;53.868;10.728;2023-09-19T05:45:10;15.20;99.90
70368;DHT22;57789;53.868;10.728;2023-09-19T05:47:40;15.20;99.90
70368;DHT22;57789;53.868;10.728;2023-09-19T05:50:07;15.10;99.90
70368;DHT22;57789;53.868;10.728;2023-09-19T05:52:36;15.10;99.90
70368;DHT22;57789;53.868;10.728;2023-09-19T05:55:04;15.10;99.90
70368;DHT22;57789;53.868;10.728;2023-09-19T05:57:32;15.00;99.90
70368;DHT22;57789;53.868;10.728;2023-09-19T05:59:58;15.00;99.90
70368;DHT22;57789;53.868;10.728;2023-09-19T06:02:23;15.00;99.90
70368;DHT22;57789;53.868;10.728;2023-09-19T06:04:52;15.00;99.90
70368;DHT22;57789;53.868;10.728;2023-09-19T06:07:18;14.90;99.90
70368;DHT22;57789;53.868;10.728;2023-09-19T06:09:44;14.90;99.90
70368;DHT22;57789;53.868;10.728;2023-09-19T06:12:09;14.90;99.90
70368;DHT22;57789;53.868;10.728;2023-09-19T06:14:39;14.90;99.90
70368;DHT22;57789;53.868;10.728;2023-09-19T06:17:05;14.90;99.90
70368;DHT22;57789;53.868;10.728;2023-09-19T06:19:31;14.90;99.90
70368;DHT22;57789;53.868;10.728;2023-09-19T06:21:58;15.00;99.90
70368;DHT22;57789;53.868;10.728;2023-09-19T06:24:25;15.00;99.90
70368;DHT22;57789;53.868;10.728;2023-09-19T06:26:51;15.00;99.90
70368;DHT22;57789;53.868;10.728;2023-09-19T06:29:18;15.10;99.90
70368;DHT22;57789;53.868;10.728;2023-09-19T06:31:46;15.20;99.90
70368;DHT22;57789;53.868;10.728;2023-09-19T06:34:12;15.20;99.90
70368;DHT22;57789;53.868;10.728;2023-09-19T06:36:41;15.30;99.90
70368;DHT22;57789;53.868;10.728;2023-09-19T06:39:07;15.40;99.90
70368;DHT22;57789;53.868;10.728;2023-09-19T06:41:37;15.50;99.90
70368;DHT22;57789;53.868;10.728;2023-09-19T06:44:04;15.60;99.90
70368;DHT22;57789;53.868;10.728;2023-09-19T06:46:31;15.70;99.90
70368;DHT22;57789;53.868;10.728;2023-09-19T06:49:01;15.70;99.90
70368;DHT22;57789;53.868;10.728;2023-09-19T06:51:32;15.80;99.90
70368;DHT22;57789;53.868;10.728;2023-09-19T06:54:01;15.90;99.90
70368;DHT22;57789;53.868;10.728;2023-09-19T06:56:27;15.90;99.90
70368;DHT22;57789;53.868;10.728;2023-09-19T06:58:52;15.90;99.90
70368;DHT22;57789;53.868;10.728;2023-09-19T07:01:18;15.90;99.90
70368;DHT22;57789;53.868;10.728;2023-09-19T07:03:44;15.80;99.90
70368;DHT22;57789;53.868;10.728;2023-09-19T07:06:11;15.90;99.90
70368;DHT22;57789;53.868;10.728;2023-09-19T07:08:36;15.90;99.90
70368;DHT22;57789;53.868;10.728;2023-09-19T07:11:04;16.00;99.90
70368;DHT22;57789;53.868;10.728;2023-09-19T07:13:31;16.00;99.90
70368;DHT22;57789;53.868;10.728;2023-09-19T07:15:58;16.10;99.90
70368;DHT22;57789;53.868;10.728;2023-09-19T07:18:24;16.10;99.90
70368;DHT22;57789;53.868;10.728;2023-09-19T07:20:50;16.10;99.90
70368;DHT22;57789;53.868;10.728;2023-09-19T07:23:17;16.20;99.90
70368;DHT22;57789;53.868;10.728;2023-09-19T07:25:44;16.10;99.90
70368;DHT22;57789;53.868;10.728;2023-09-19T07:28:09;16.20;99.90
70368;DHT22;57789;53.868;10.728;2023-09-19T07:30:38;16.20;99.90
70368;DHT22;57789;53.868;10.728;2023-09-19T07:33:05;16.30;99.90
70368;DHT22;57789;53.868;10.728;2023-09-19T07:35:31;16.30;99.90
70368;DHT22;57789;53.868;10.728;2023-09-19T07:37:57;16.30;99.90
70368;DHT22;57789;53.868;10.728;2023-09-19T07:40:24;16.40;99.90
70368;DHT22;57789;53.868;10.728;2023-09-19T07:42:52;16.30;99.90
70368;DHT22;57789;53.868;10.728;2023-09-19T07:45:18;16.40;99.90
70368;DHT22;57789;53.868;10.728;2023-09-19T07:47:47;16.40;99.90
70368;DHT22;57789;53.868;10.728;2023-09-19T07:50:14;16.40;99.90
70368;DHT22;57789;53.868;10.728;2023-09-19T07:52:41;16.50;99.90
70368;DHT22;57789;53.868;10.728;2023-09-19T07:55:08;16.50;99.90
70368;DHT22;57789;53.868;10.728;2023-09-19T07:57:45;16.50;99.90
70368;DHT22;57789;53.868;10.728;2023-09-19T08:00:12;16.60;99.90
70368;DHT22;57789;53.868;10.728;2023-09-19T08:02:39;16.70;99.90
70368;DHT22;57789;53.868;10.728;2023-09-19T08:05:06;16.70;99.90
70368;DHT22;57789;53.868;10.728;2023-09-19T08:07:33;16.60;99.90
70368;DHT22;57789;53.868;10.728;2023-09-19T08:09:58;16.70;99.90
70368;DHT22;57789;53.868;10.728;2023-09-19T08:12:24;16.70;99.90
70368;DHT22;57789;53.868;10.728;2023-09-19T08:14:50;16.70;99.90
70368;DHT22;57789;53.868;10.728;2023-09-19T08:17:16;16.70;99.90
70368;DHT22;57789;53.868;10.728;2023-09-19T08:19:42;16.80;99.90
70368;DHT22;57789;53.868;10.728;2023-09-19T08:22:10;16.80;99.90
70368;DHT22;57789;53.868;10.728;2023-09-19T08:24:36;16.80;99.90
70368;DHT22;57789;53.868;10.728;2023-09-19T08:27:04;16.80;99.90
70368;DHT22;57789;53.868;10.728;2023-09-19T08:29:30;16.70;99.90
70368;DHT22;57789;53.868;10.728;2023-09-19T08:31:59;16.70;99.90
70368;DHT22;57789;53.868;10.728;2023-09-19T08:34:25;16.60;99.90
70368;DHT22;57789;53.868;10.728;2023-09-19T08:36:55;16.70;99.90
70368;DHT22;57789;53.868;10.728;2023-09-19T08:39:24;16.70;99.90
70368;DHT22;57789;53.868;10.728;2023-09-19T08:41:57;16.70;99.90
70368;DHT22;57789;53.868;10.728;2023-09-19T08:44:24;16.80;99.90
70368;DHT22;57789;53.868;10.728;2023-09-19T08:46:55;16.80;99.90
70368;DHT22;57789;53.868;10.728;2023-09-19T08:52:29;17.00;99.90
70368;DHT22;57789;53.868;10.728;2023-09-19T08:54:59;17.00;99.90
70368;DHT22;57789;53.868;10.728;2023-09-19T08:57:33;17.10;99.90
70368;DHT22;57789;53.868;10.728;2023-09-19T09:00:02;17.20;99.90
70368;DHT22;57789;53.868;10.728;2023-09-19T09:02:31;17.00;99.90
70368;DHT22;57789;53.868;10.728;2023-09-19T09:04:59;17.10;99.90
70368;DHT22;57789;53.868;10.728;2023-09-19T09:07:25;17.20;99.90
70368;DHT22;57789;53.868;10.728;2023-09-19T09:09:53;17.10;99.90
70368;DHT22;57789;53.868;10.728;2023-09-19T09:12:19;16.90;99.90
70368;DHT22;57789;53.868;10.728;2023-09-19T09:14:46;17.00;99.90
70368;DHT22;57789;53.868;10.728;2023-09-19T09:17:14;17.00;99.90
70368;DHT22;57789;53.868;10.728;2023-09-19T09:19:40;17.00;99.90
70368;DHT22;57789;53.868;10.728;2023-09-19T09:22:11;17.00;99.90
70368;DHT22;57789;53.868;10.728;2023-09-19T09:24:37;16.70;99.90
70368;DHT22;57789;53.868;10.728;2023-09-19T09:27:16;16.60;99.90
70368;DHT22;57789;53.868;10.728;2023-09-19T09:29:44;16.60;99.90
70368;DHT22;57789;53.868;10.728;2023-09-19T09:35:07;16.60;99.90
70368;DHT22;57789;53.868;10.728;2023-09-19T09:37:43;16.50;99.90
70368;DHT22;57789;53.868;10.728;2023-09-19T09:40:09;16.60;99.90
70368;DHT22;57789;53.868;10.728;2023-09-19T09:42:40;16.70;99.90
70368;DHT22;57789;53.868;10.728;2023-09-19T09:45:23;16.80;99.90
70368;DHT22;57789;53.868;10.728;2023-09-19T09:48:03;16.80;99.90
70368;DHT22;57789;53.868;10.728;2023-09-19T09:50:33;16.90;99.90
70368;DHT22;57789;53.868;10.728;2023-09-19T09:53:27;17.00;99.90
70368;DHT22;57789;53.868;10.728;2023-09-19T09:56:08;17.00;99.90
70368;DHT22;57789;53.868;10.728;2023-09-19T09:58:49;17.00;99.90
70368;DHT22;57789;53.868;10.728;2023-09-19T10:01:15;17.10;99.90
70368;DHT22;57789;53.868;10.728;2023-09-19T10:03:43;17.00;99.90
70368;DHT22;57789;53.868;10.728;2023-09-19T10:06:11;17.10;99.90
70368;DHT22;57789;53.868;10.728;2023-09-19T10:09:07;17.10;99.90
70368;DHT22;57789;53.868;10.728;2023-09-19T10:11:44;17.30;99.90
70368;DHT22;57789;53.868;10.728;2023-09-19T10:14:17;17.30;99.90
70368;DHT22;57789;53.868;10.728;2023-09-19T10:16:47;17.40;99.90
70368;DHT22;57789;53.868;10.728;2023-09-19T10:19:31;17.50;99.90
70368;DHT22;57789;53.868;10.728;2023-09-19T10:22:01;17.60;99.90
70368;DHT22;57789;53.868;10.728;2023-09-19T10:24:28;17.70;99.90
70368;DHT22;57789;53.868;10.728;2023-09-19T10:26:54;17.60;99.90
70368;DHT22;57789;53.868;10.728;2023-09-19T10:29:21;17.80;99.90
70368;DHT22;57789;53.868;10.728;2023-09-19T10:31:52;17.80;99.90
70368;DHT22;57789;53.868;10.728;2023-09-19T10:34:19;17.70;99.90
70368;DHT22;57789;53.868;10.728;2023-09-19T10:36:46;17.70;99.90
70368;DHT22;57789;53.868;10.728;2023-09-19T10:39:16;17.60;99.90
70368;DHT22;57789;53.868;10.728;2023-09-19T10:41:53;17.60;99.90
70368;DHT22;57789;53.868;10.728;2023-09-19T10:44:24;17.80;99.90
70368;DHT22;57789;53.868;10.728;2023-09-19T10:46:53;17.90;99.90
70368;DHT22;57789;53.868;10.728;2023-09-19T10:49:20;17.90;99.90
70368;DHT22;57789;53.868;10.728;2023-09-19T10:51:48;17.80;99.90
70368;DHT22;57789;53.868;10.728;2023-09-19T10:54:18;17.80;99.90
70368;DHT22;57789;53.868;10.728;2023-09-19T10:56:48;17.90;99.90
70368;DHT22;57789;53.868;10.728;2023-09-19T10:59:17;18.10;99.90
70368;DHT22;57789;53.868;10.728;2023-09-19T11:07:08;18.20;99.90
70368;DHT22;57789;53.868;10.728;2023-09-19T11:14:56;18.70;99.90
70368;DHT22;57789;53.868;10.728;2023-09-19T11:17:33;18.50;99.90
70368;DHT22;57789;53.868;10.728;2023-09-19T11:30:39;18.60;99.90
70368;DHT22;57789;53.868;10.728;2023-09-19T11:33:25;18.70;99.90
70368;DHT22;57789;53.868;10.728;2023-09-19T11:36:16;19.00;99.90
70368;DHT22;57789;53.868;10.728;2023-09-19T11:43:49;18.80;99.90
70368;DHT22;57789;53.868;10.728;2023-09-19T11:46:16;18.90;99.90
70368;DHT22;57789;53.868;10.728;2023-09-19T11:48:50;19.10;99.90
70368;DHT22;57789;53.868;10.728;2023-09-19T11:51:21;19.20;99.90
70368;DHT22;57789;53.868;10.728;2023-09-19T11:53:54;19.20;99.90
70368;DHT22;57789;53.868;10.728;2023-09-19T11:56:22;19.30;99.90
70368;DHT22;57789;53.868;10.728;2023-09-19T11:58:50;19.30;99.90
70368;DHT22;57789;53.868;10.728;2023-09-19T12:01:30;19.40;99.90
70368;DHT22;57789;53.868;10.728;2023-09-19T12:03:58;19.30;99.90
70368;DHT22;57789;53.868;10.728;2023-09-19T12:06:28;19.40;99.90
70368;DHT22;57789;53.868;10.728;2023-09-19T12:08:58;19.20;99.90
70368;DHT22;57789;53.868;10.728;2023-09-19T12:11:31;18.90;99.90
70368;DHT22;57789;53.868;10.728;2023-09-19T12:14:01;18.70;99.90
70368;DHT22;57789;53.868;10.728;2023-09-19T12:16:27;18.60;99.90
70368;DHT22;57789;53.868;10.728;2023-09-19T12:18:57;18.60;99.90
70368;DHT22;57789;53.868;10.728;2023-09-19T12:21:30;18.60;99.90
70368;DHT22;57789;53.868;10.728;2023-09-19T12:24:07;18.60;99.90
70368;DHT22;57789;53.868;10.728;2023-09-19T12:26:45;18.80;99.90
70368;DHT22;57789;53.868;10.728;2023-09-19T12:29:31;19.10;99.90
70368;DHT22;57789;53.868;10.728;2023-09-19T12:31:58;19.10;99.90
70368;DHT22;57789;53.868;10.728;2023-09-19T12:34:27;19.20;99.90
70368;DHT22;57789;53.868;10.728;2023-09-19T12:39:44;19.00;99.90
70368;DHT22;57789;53.868;10.728;2023-09-19T12:42:21;18.80;99.90
70368;DHT22;57789;53.868;10.728;2023-09-19T12:44:51;18.90;99.90
70368;DHT22;57789;53.868;10.728;2023-09-19T12:47:27;18.90;99.90
70368;DHT22;57789;53.868;10.728;2023-09-19T12:50:14;19.00;99.90
70368;DHT22;57789;53.868;10.728;2023-09-19T12:52:50;19.00;99.90
70368;DHT22;57789;53.868;10.728;2023-09-19T12:55:21;18.90;99.90
70368;DHT22;57789;53.868;10.728;2023-09-19T13:00:22;19.20;99.90
70368;DHT22;57789;53.868;10.728;2023-09-19T13:03:12;19.20;99.90
70368;DHT22;57789;53.868;10.728;2023-09-19T13:08:47;19.40;99.90
70368;DHT22;57789;53.868;10.728;2023-09-19T13:11:19;19.30;99.90
70368;DHT22;57789;53.868;10.728;2023-09-19T13:14:12;19.30;99.90
70368;DHT22;57789;53.868;10.728;2023-09-19T13:22:40;19.90;99.90
70368;DHT22;57789;53.868;10.728;2023-09-19T13:25:12;19.60;99.90
70368;DHT22;57789;53.868;10.728;2023-09-19T13:28:09;19.60;99.90
70368;DHT22;57789;53.868;10.728;2023-09-19T13:30:37;19.60;99.90
70368;DHT22;57789;53.868;10.728;2023-09-19T13:33:11;19.70;99.90
70368;DHT22;57789;53.868;10.728;2023-09-19T13:35:39;19.90;99.90
70368;DHT22;57789;53.868;10.728;2023-09-19T13:38:06;19.90;99.90
70368;DHT22;57789;53.868;10.728;2023-09-19T13:40:37;20.00;99.90
70368;DHT22;57789;53.868;10.728;2023-09-19T13:43:07;20.00;99.90
70368;DHT22;57789;53.868;10.728;2023-09-19T13:45:33;20.00;99.90
70368;DHT22;57789;53.868;10.728;2023-09-19T13:47:59;20.10;99.90
70368;DHT22;57789;53.868;10.728;2023-09-19T13:50:25;20.00;99.90
70368;DHT22;57789;53.868;10.728;2023-09-19T13:52:54;19.90;99.90
70368;DHT22;57789;53.868;10.728;2023-09-19T13:55:20;19.90;99.90
70368;DHT22;57789;53.868;10.728;2023-09-19T13:57:49;19.70;99.90
70368;DHT22;57789;53.868;10.728;2023-09-19T14:00:21;19.60;99.90
70368;DHT22;57789;53.868;10.728;2023-09-19T14:02:48;19.70;99.90
70368;DHT22;57789;53.868;10.728;2023-09-19T14:05:15;19.70;99.90
70368;DHT22;57789;53.868;10.728;2023-09-19T14:07:42;19.80;99.90
70368;DHT22;57789;53.868;10.728;2023-09-19T14:10:09;19.90;99.90
70368;DHT22;57789;53.868;10.728;2023-09-19T14:12:36;19.90;99.90
70368;DHT22;57789;53.868;10.728;2023-09-19T14:15:03;20.10;99.90
70368;DHT22;57789;53.868;10.728;2023-09-19T14:17:29;20.20;99.90
70368;DHT22;57789;53.868;10.728;2023-09-19T14:19:55;20.30;99.90
70368;DHT22;57789;53.868;10.728;2023-09-19T14:22:21;20.30;99.90
70368;DHT22;57789;53.868;10.728;2023-09-19T14:24:47;20.40;99.90
70368;DHT22;57789;53.868;10.728;2023-09-19T14:27:13;20.50;99.90
70368;DHT22;57789;53.868;10.728;2023-09-19T14:29:38;20.40;99.90
70368;DHT22;57789;53.868;10.728;2023-09-19T14:32:05;20.60;99.90
70368;DHT22;57789;53.868;10.728;2023-09-19T14:34:31;20.70;99.90
70368;DHT22;57789;53.868;10.728;2023-09-19T14:36:57;20.90;99.90
70368;DHT22;57789;53.868;10.728;2023-09-19T14:39:22;21.10;99.90
70368;DHT22;57789;53.868;10.728;2023-09-19T14:41:49;21.20;99.90
70368;DHT22;57789;53.868;10.728;2023-09-19T14:44:14;21.40;99.90
70368;DHT22;57789;53.868;10.728;2023-09-19T14:46:42;21.50;99.90
70368;DHT22;57789;53.868;10.728;2023-09-19T14:49:09;21.80;99.90
70368;DHT22;57789;53.868;10.728;2023-09-19T14:51:37;21.70;99.90
70368;DHT22;57789;53.868;10.728;2023-09-19T14:54:03;21.80;99.90
70368;DHT22;57789;53.868;10.728;2023-09-19T14:56:29;21.90;99.90
70368;DHT22;57789;53.868;10.728;2023-09-19T14:58:56;21.90;99.90
70368;DHT22;57789;53.868;10.728;2023-09-19T15:01:22;22.00;99.90
70368;DHT22;57789;53.868;10.728;2023-09-19T15:03:48;21.70;99.90
70368;DHT22;57789;53.868;10.728;2023-09-19T15:06:15;21.40;99.90
70368;DHT22;57789;53.868;10.728;2023-09-19T15:08:43;21.10;99.90
70368;DHT22;57789;53.868;10.728;2023-09-19T15:11:19;21.00;99.90
70368;DHT22;57789;53.868;10.728;2023-09-19T15:13:46;20.80;99.90
70368;DHT22;57789;53.868;10.728;2023-09-19T15:16:13;20.50;99.90
70368;DHT22;57789;53.868;10.728;2023-09-19T15:18:40;20.30;99.90
70368;DHT22;57789;53.868;10.728;2023-09-19T15:21:08;20.10;99.90
70368;DHT22;57789;53.868;10.728;2023-09-19T15:23:35;20.10;99.90
70368;DHT22;57789;53.868;10.728;2023-09-19T15:26:05;20.00;99.90
70368;DHT22;57789;53.868;10.728;2023-09-19T15:28:32;19.90;99.90
70368;DHT22;57789;53.868;10.728;2023-09-19T15:31:06;19.90;99.90
70368;DHT22;57789;53.868;10.728;2023-09-19T15:33:32;19.80;99.90
70368;DHT22;57789;53.868;10.728;2023-09-19T15:38:31;19.60;99.90
70368;DHT22;57789;53.868;10.728;2023-09-19T15:40:58;19.60;99.90
70368;DHT22;57789;53.868;10.728;2023-09-19T15:43:25;19.50;99.90
70368;DHT22;57789;53.868;10.728;2023-09-19T15:45:50;19.50;99.90
70368;DHT22;57789;53.868;10.728;2023-09-19T15:48:17;19.40;99.90
70368;DHT22;57789;53.868;10.728;2023-09-19T15:50:43;19.40;99.90
70368;DHT22;57789;53.868;10.728;2023-09-19T15:53:10;19.30;99.90
70368;DHT22;57789;53.868;10.728;2023-09-19T15:55:41;19.20;99.90
70368;DHT22;57789;53.868;10.728;2023-09-19T15:58:07;19.30;99.90
70368;DHT22;57789;53.868;10.728;2023-09-19T16:00:33;19.20;99.90
70368;DHT22;57789;53.868;10.728;2023-09-19T16:03:02;19.20;99.90
70368;DHT22;57789;53.868;10.728;2023-09-19T16:05:28;19.10;99.90
70368;DHT22;57789;53.868;10.728;2023-09-19T16:08:03;19.10;99.90
70368;DHT22;57789;53.868;10.728;2023-09-19T16:10:29;19.10;99.90
70368;DHT22;57789;53.868;10.728;2023-09-19T16:12:55;19.00;99.90
70368;DHT22;57789;53.868;10.728;2023-09-19T16:15:20;19.00;99.90
70368;DHT22;57789;53.868;10.728;2023-09-19T16:17:46;19.00;99.90
70368;DHT22;57789;53.868;10.728;2023-09-19T16:20:12;19.00;99.90
70368;DHT22;57789;53.868;10.728;2023-09-19T16:22:39;18.90;99.90
70368;DHT22;57789;53.868;10.728;2023-09-19T16:25:06;18.90;99.90